Wetterdaten: Woche 15.08.22 - 21.08.22 (KW33)
Datum Zeit Temp. Aussen Temp. o. S. Temp +5cm Feuchte Auss Luftdruck Regen Sonnenschein Regendauer Solar Windben Empfang
15.08.2022 00:00 23,6 C 21,9 C 18,3 C 72 % 1003,8 hPa 0,0 l/m 0,00 h 0,00 h 0 W/m 0,0 km/h (0 Bft) 98,31 %
15.08.2022 01:00 22,6 C 21,6 C 18,1 C 74 % 1003,5 hPa 0,0 l/m 0,00 h 0,00 h 0 W/m 1,5 km/h (1 Bft) 98,22 %
15.08.2022 02:00 22,7 C 21,9 C 18,4 C 68 % 1003,5 hPa 0,0 l/m 0,00 h 0,00 h 0 W/m 3,7 km/h (1 Bft) 95,94 %
15.08.2022 03:00 22,5 C 21,6 C 18,1 C 64 % 1003,6 hPa 0,0 l/m 0,00 h 0,00 h 0 W/m 4,6 km/h (1 Bft) 99,08 %
15.08.2022 04:00 22,7 C 21,6 C 18,1 C 64 % 1003,7 hPa 0,0 l/m 0,00 h 0,00 h 0 W/m 5,1 km/h (1 Bft) 96,98 %
15.08.2022 05:00 22,4 C 21,3 C 17,8 C 65 % 1003,6 hPa 0,0 l/m 0,00 h 0,00 h 0 W/m 5,2 km/h (1 Bft) 96,79 %
15.08.2022 06:00 22,2 C 21,2 C 17,8 C 67 % 1003,6 hPa 0,0 l/m 0,00 h 0,00 h 10 W/m 8,7 km/h (2 Bft) 98,65 %
15.08.2022 07:00 22,6 C 21,7 C 18,3 C 67 % 1003,8 hPa 0,0 l/m 0,00 h 0,00 h 24 W/m 9,4 km/h (2 Bft) 97,72 %
15.08.2022 08:00 22,9 C 22,4 C 18,6 C 68 % 1004,1 hPa 0,0 l/m 0,00 h 0,00 h 95 W/m 9,7 km/h (2 Bft) 96,56 %
15.08.2022 09:00 23,1 C 22,3 C 18,9 C 70 % 1004,4 hPa 0,0 l/m 0,00 h 0,00 h 84 W/m 8,9 km/h (2 Bft) 99,64 %
15.08.2022 10:00 23,4 C 23,1 C 19,2 C 71 % 1004,6 hPa 0,0 l/m 0,00 h 0,00 h 164 W/m 9,0 km/h (2 Bft) 96,22 %
15.08.2022 11:00 23,4 C 22,8 C 19,1 C 73 % 1004,9 hPa 0,0 l/m 0,00 h 0,00 h 108 W/m 9,4 km/h (2 Bft) 98,24 %
15.08.2022 12:00 23,6 C 23,3 C 19,8 C 74 % 1005,0 hPa 0,0 l/m 0,00 h 0,00 h 212 W/m 11,4 km/h (2 Bft) 97,77 %
15.08.2022 13:00 23,5 C 22,9 C 19,3 C 76 % 1005,3 hPa 0,0 l/m 0,00 h 0,07 h 116 W/m 12,1 km/h (2 Bft) 98,29 %
15.08.2022 14:00 23,3 C 23,5 C 18,1 C 81 % 1005,4 hPa 0,0 l/m 0,23 h 0,30 h 245 W/m 9,5 km/h (2 Bft) 96,49 %
15.08.2022 15:00 25,8 C 29,6 C 21,8 C 71 % 1005,2 hPa 0,0 l/m 0,97 h 0,00 h 695 W/m 16,0 km/h (3 Bft) 97,86 %
15.08.2022 16:00 26,3 C 26,7 C 21,8 C 68 % 1005,1 hPa 0,0 l/m 0,57 h 0,00 h 310 W/m 8,6 km/h (2 Bft) 98,08 %
15.08.2022 17:00 26,0 C 25,3 C 21,4 C 67 % 1004,9 hPa 0,0 l/m 0,00 h 0,00 h 147 W/m 9,9 km/h (2 Bft) 97,44 %
15.08.2022 18:00 26,5 C 28,3 C 21,9 C 64 % 1004,6 hPa 0,0 l/m 0,83 h 0,00 h 321 W/m 10,7 km/h (2 Bft) 96,36 %
15.08.2022 19:00 26,1 C 25,3 C 21,3 C 63 % 1004,6 hPa 0,0 l/m 0,23 h 0,00 h 103 W/m 12,1 km/h (2 Bft) 99,86 %
15.08.2022 20:00 24,7 C 23,5 C 20,0 C 66 % 1005,2 hPa 0,0 l/m 0,00 h 0,00 h 22 W/m 5,9 km/h (2 Bft) 95,80 %
15.08.2022 21:00 24,0 C 22,7 C 19,1 C 67 % 1005,9 hPa 0,0 l/m 0,00 h 0,00 h 0 W/m 4,8 km/h (1 Bft) 98,02 %
15.08.2022 22:00 23,1 C 21,8 C 18,3 C 71 % 1006,1 hPa 0,0 l/m 0,00 h 0,00 h 0 W/m 1,8 km/h (1 Bft) 98,43 %
15.08.2022 23:00 22,4 C 21,1 C 18,0 C 74 % 1006,3 hPa 0,0 l/m 0,00 h 0,00 h 0 W/m 3,7 km/h (1 Bft) 96,65 %
16.08.2022 00:00 21,9 C 20,8 C 17,8 C 76 % 1006,5 hPa 0,0 l/m 0,00 h 0,00 h 0 W/m 1,8 km/h (1 Bft) 97,05 %
16.08.2022 01:00 21,5 C 20,2 C 17,0 C 78 % 1006,5 hPa 0,0 l/m 0,00 h 0,00 h 0 W/m 3,2 km/h (1 Bft) 99,15 %
16.08.2022 02:00 21,1 C 20,3 C 17,1 C 80 % 1006,7 hPa 0,0 l/m 0,00 h 0,00 h 0 W/m 4,5 km/h (1 Bft) 94,67 %
16.08.2022 03:00 21,2 C 20,2 C 17,0 C 78 % 1006,7 hPa 0,0 l/m 0,00 h 0,00 h 0 W/m 7,0 km/h (2 Bft) 98,79 %
16.08.2022 04:00 20,3 C 18,8 C 15,9 C 80 % 1006,7 hPa 0,0 l/m 0,00 h 0,00 h 0 W/m 3,6 km/h (1 Bft) 97,36 %
16.08.2022 05:00 19,0 C 17,6 C 14,7 C 84 % 1006,8 hPa 0,0 l/m 0,00 h 0,00 h 0 W/m 3,9 km/h (1 Bft) 96,37 %
16.08.2022 06:00 18,1 C 17,2 C 14,3 C 87 % 1007,2 hPa 0,0 l/m 0,00 h 0,00 h 10 W/m 4,5 km/h (1 Bft) 98,26 %
16.08.2022 07:00 18,2 C 17,6 C 14,6 C 88 % 1007,6 hPa 0,0 l/m 0,00 h 0,00 h 33 W/m 4,9 km/h (1 Bft) 98,01 %
16.08.2022 08:00 19,5 C 19,7 C 15,9 C 86 % 1007,9 hPa 0,0 l/m 0,23 h 0,00 h 112 W/m 8,5 km/h (2 Bft) 96,13 %
16.08.2022 09:00 22,2 C 26,0 C 18,3 C 78 % 1008,2 hPa 0,0 l/m 1,00 h 0,00 h 379 W/m 9,0 km/h (2 Bft) 99,57 %
16.08.2022 10:00 24,1 C 24,8 C 19,6 C 73 % 1008,6 hPa 0,0 l/m 0,83 h 0,00 h 488 W/m 9,2 km/h (2 Bft) 96,73 %
16.08.2022 11:00 26,1 C 27,4 C 21,5 C 67 % 1008,7 hPa 0,0 l/m 1,00 h 0,00 h 691 W/m 9,0 km/h (2 Bft) 97,75 %
16.08.2022 12:00 28,1 C 32,7 C 25,7 C 60 % 1008,5 hPa 0,0 l/m 1,00 h 0,00 h 779 W/m 13,0 km/h (3 Bft) 98,35 %
16.08.2022 13:00 29,4 C 30,8 C 24,5 C 54 % 1008,6 hPa 0,0 l/m 0,80 h 0,00 h 745 W/m 12,4 km/h (3 Bft) 97,16 %
16.08.2022 14:00 28,9 C 29,0 C 24,2 C 53 % 1008,8 hPa 0,0 l/m 0,27 h 0,00 h 309 W/m 10,0 km/h (2 Bft) 97,30 %
16.08.2022 15:00 29,9 C 32,6 C 25,0 C 51 % 1008,6 hPa 0,0 l/m 0,80 h 0,00 h 580 W/m 12,6 km/h (3 Bft) 97,79 %
16.08.2022 16:00 29,7 C 29,6 C 24,7 C 50 % 1008,7 hPa 0,0 l/m 0,30 h 0,00 h 288 W/m 8,4 km/h (2 Bft) 98,65 %
16.08.2022 17:00 29,8 C 30,6 C 24,9 C 49 % 1008,5 hPa 0,0 l/m 0,80 h 0,00 h 293 W/m 8,2 km/h (2 Bft) 96,49 %
16.08.2022 18:00 29,9 C 31,1 C 24,9 C 48 % 1008,6 hPa 0,0 l/m 0,97 h 0,00 h 306 W/m 6,9 km/h (2 Bft) 97,78 %
16.08.2022 19:00 29,1 C 28,0 C 23,7 C 50 % 1008,6 hPa 0,0 l/m 0,17 h 0,00 h 89 W/m 8,3 km/h (2 Bft) 98,51 %
16.08.2022 20:00 27,4 C 25,9 C 22,0 C 54 % 1008,8 hPa 0,0 l/m 0,00 h 0,00 h 14 W/m 4,9 km/h (1 Bft) 97,58 %
16.08.2022 21:00 26,1 C 24,2 C 19,9 C 59 % 1009,1 hPa 0,0 l/m 0,00 h 0,00 h 0 W/m 0,0 km/h (0 Bft) 97,01 %
16.08.2022 22:00 25,0 C 23,3 C 18,9 C 62 % 1009,7 hPa 0,0 l/m 0,00 h 0,00 h 0 W/m 0,0 km/h (0 Bft) 99,93 %
16.08.2022 23:00 24,4 C 23,3 C 19,1 C 64 % 1009,9 hPa 0,0 l/m 0,00 h 0,00 h 0 W/m 1,8 km/h (1 Bft) 95,87 %
17.08.2022 00:00 23,8 C 22,2 C 18,3 C 68 % 1009,9 hPa 0,0 l/m 0,00 h 0,00 h 0 W/m 1,0 km/h (0 Bft) 99,05 %
17.08.2022 01:00 22,6 C 20,9 C 17,1 C 72 % 1009,8 hPa 0,0 l/m 0,00 h 0,00 h 0 W/m 0,0 km/h (0 Bft) 98,65 %
17.08.2022 02:00 22,0 C 20,9 C 17,3 C 72 % 1009,4 hPa 0,0 l/m 0,00 h 0,00 h 0 W/m 2,0 km/h (1 Bft) 96,08 %
17.08.2022 03:00 21,5 C 20,1 C 16,6 C 74 % 1009,1 hPa 0,0 l/m 0,00 h 0,00 h 0 W/m 1,4 km/h (1 Bft) 97,87 %
17.08.2022 04:00 20,6 C 19,3 C 16,0 C 77 % 1009,0 hPa 0,0 l/m 0,00 h 0,00 h 0 W/m 1,7 km/h (1 Bft) 99,36 %
17.08.2022 05:00 20,0 C 18,9 C 15,6 C 80 % 1008,9 hPa 0,0 l/m 0,00 h 0,00 h 0 W/m 0,0 km/h (0 Bft) 95,23 %
17.08.2022 06:00 19,8 C 19,2 C 15,9 C 81 % 1009,0 hPa 0,0 l/m 0,00 h 0,00 h 8 W/m 1,6 km/h (1 Bft) 98,76 %
17.08.2022 07:00 20,6 C 20,3 C 16,9 C 77 % 1009,4 hPa 0,0 l/m 0,00 h 0,00 h 41 W/m 6,2 km/h (2 Bft) 98,36 %
17.08.2022 08:00 22,3 C 22,0 C 18,2 C 73 % 1009,6 hPa 0,0 l/m 0,00 h 0,00 h 125 W/m 10,3 km/h (2 Bft) 95,57 %
17.08.2022 09:00 22,8 C 22,3 C 18,4 C 75 % 1010,1 hPa 0,0 l/m 0,00 h 0,00 h 138 W/m 8,7 km/h (2 Bft) 99,08 %
17.08.2022 10:00 23,1 C 22,7 C 18,9 C 75 % 1010,4 hPa 0,0 l/m 0,00 h 0,00 h 157 W/m 6,6 km/h (2 Bft) 96,90 %
17.08.2022 11:00 23,0 C 22,3 C 18,7 C 76 % 1010,6 hPa 0,0 l/m 0,00 h 0,03 h 109 W/m 13,7 km/h (3 Bft) 96,57 %
17.08.2022 12:00 22,5 C 21,7 C 17,7 C 82 % 1011,0 hPa 0,0 l/m 0,00 h 0,20 h 91 W/m 9,9 km/h (2 Bft) 99,07 %
17.08.2022 13:00 21,4 C 20,7 C 17,2 C 87 % 1010,8 hPa 0,0 l/m 0,00 h 0,00 h 119 W/m 11,1 km/h (2 Bft) 97,22 %
17.08.2022 14:00 21,4 C 21,2 C 17,8 C 89 % 1011,3 hPa 0,0 l/m 0,00 h 0,00 h 149 W/m 7,0 km/h (2 Bft) 97,01 %
17.08.2022 15:00 22,3 C 22,5 C 18,6 C 87 % 1011,4 hPa 0,0 l/m 0,30 h 0,00 h 270 W/m 10,6 km/h (2 Bft) 97,58 %
17.08.2022 16:00 23,1 C 24,0 C 19,5 C 83 % 1011,2 hPa 0,0 l/m 0,57 h 0,00 h 381 W/m 10,0 km/h (2 Bft) 98,15 %
17.08.2022 17:00 24,4 C 26,9 C 20,4 C 77 % 1010,9 hPa 0,0 l/m 0,83 h 0,00 h 413 W/m 11,2 km/h (2 Bft) 98,08 %
17.08.2022 18:00 24,2 C 25,2 C 19,9 C 75 % 1010,9 hPa 0,0 l/m 0,48 h 0,00 h 213 W/m 6,9 km/h (2 Bft) 96,28 %
17.08.2022 19:00 24,2 C 23,6 C 19,7 C 75 % 1011,0 hPa 0,0 l/m 0,27 h 0,00 h 84 W/m 5,8 km/h (2 Bft) 99,08 %
17.08.2022 20:00 23,3 C 22,2 C 18,5 C 76 % 1011,4 hPa 0,0 l/m 0,00 h 0,00 h 19 W/m 4,5 km/h (1 Bft) 98,22 %
17.08.2022 21:00 22,2 C 20,6 C 17,0 C 81 % 1012,0 hPa 0,0 l/m 0,00 h 0,00 h 0 W/m 2,6 km/h (1 Bft) 96,18 %
17.08.2022 22:00 21,0 C 19,2 C 15,7 C 87 % 1012,2 hPa 0,0 l/m 0,00 h 0,00 h 0 W/m 0,0 km/h (0 Bft) 99,09 %
17.08.2022 23:00 19,9 C 18,4 C 15,0 C 90 % 1012,5 hPa 0,0 l/m 0,00 h 0,00 h 0 W/m 1,0 km/h (0 Bft) 96,93 %
18.08.2022 00:00 19,1 C 17,8 C 14,5 C 92 % 1012,6 hPa 0,0 l/m 0,00 h 0,00 h 0 W/m 1,7 km/h (1 Bft) 96,85 %
18.08.2022 01:00 18,6 C 17,2 C 14,3 C 94 % 1012,7 hPa 0,0 l/m 0,00 h 0,00 h 0 W/m 0,4 km/h (0 Bft) 99,79 %
18.08.2022 02:00 18,1 C 16,8 C 14,0 C 95 % 1013,1 hPa 0,0 l/m 0,00 h 0,00 h 0 W/m 0,4 km/h (0 Bft) 96,23 %
18.08.2022 03:00 17,8 C 16,9 C 14,0 C 96 % 1013,0 hPa 0,0 l/m 0,00 h 0,00 h 0 W/m 3,8 km/h (1 Bft) 98,22 %
18.08.2022 04:00 17,9 C 17,2 C 14,3 C 97 % 1013,1 hPa 0,0 l/m 0,00 h 0,00 h 0 W/m 6,0 km/h (2 Bft) 98,15 %
18.08.2022 05:00 18,1 C 17,3 C 14,4 C 97 % 1012,8 hPa 0,0 l/m 0,00 h 0,00 h 0 W/m 3,3 km/h (1 Bft) 97,31 %
18.08.2022 06:00 18,3 C 17,8 C 14,6 C 96 % 1012,9 hPa 0,0 l/m 0,00 h 0,00 h 7 W/m 2,1 km/h (1 Bft) 97,50 %
18.08.2022 07:00 18,5 C 18,0 C 15,0 C 96 % 1013,3 hPa 0,0 l/m 0,00 h 0,00 h 16 W/m 3,5 km/h (1 Bft) 98,05 %
18.08.2022 08:00 18,8 C 18,3 C 15,2 C 96 % 1013,8 hPa 0,0 l/m 0,00 h 0,00 h 23 W/m 2,9 km/h (1 Bft) 96,37 %
18.08.2022 09:00 19,1 C 19,1 C 15,8 C 94 % 1014,0 hPa 0,0 l/m 0,03 h 0,00 h 117 W/m 7,2 km/h (2 Bft) 98,15 %
18.08.2022 10:00 20,2 C 20,9 C 17,2 C 86 % 1014,2 hPa 0,0 l/m 0,27 h 0,00 h 272 W/m 11,2 km/h (2 Bft) 98,44 %
18.08.2022 11:00 21,1 C 21,8 C 17,9 C 82 % 1014,3 hPa 0,0 l/m 0,40 h 0,00 h 318 W/m 8,8 km/h (2 Bft) 95,68 %
18.08.2022 12:00 22,5 C 24,0 C 19,3 C 77 % 1014,2 hPa 0,0 l/m 0,33 h 0,00 h 365 W/m 10,8 km/h (2 Bft) 98,82 %
18.08.2022 13:00 23,7 C 25,2 C 20,2 C 73 % 1013,8 hPa 0,0 l/m 0,60 h 0,00 h 505 W/m 12,6 km/h (3 Bft) 98,29 %
18.08.2022 14:00 24,3 C 25,3 C 20,5 C 70 % 1013,7 hPa 0,0 l/m 0,17 h 0,00 h 318 W/m 8,9 km/h (2 Bft) 96,15 %
18.08.2022 15:00 25,4 C 26,3 C 20,8 C 67 % 1013,5 hPa 0,0 l/m 0,17 h 0,00 h 333 W/m 6,6 km/h (2 Bft) 98,72 %
18.08.2022 16:00 26,6 C 29,2 C 21,8 C 63 % 1013,0 hPa 0,0 l/m 0,97 h 0,00 h 599 W/m 10,7 km/h (2 Bft) 97,01 %
18.08.2022 17:00 26,8 C 27,2 C 21,8 C 62 % 1012,9 hPa 0,0 l/m 0,43 h 0,00 h 260 W/m 9,6 km/h (2 Bft) 97,72 %
18.08.2022 18:00 25,7 C 25,2 C 20,7 C 66 % 1012,8 hPa 0,0 l/m 0,20 h 0,00 h 143 W/m 6,7 km/h (2 Bft) 97,62 %
18.08.2022 19:00 25,7 C 25,2 C 21,0 C 65 % 1012,5 hPa 0,0 l/m 1,00 h 0,00 h 119 W/m 11,2 km/h (2 Bft) 98,07 %
18.08.2022 20:00 25,0 C 23,7 C 19,9 C 66 % 1012,5 hPa 0,0 l/m 0,63 h 0,00 h 32 W/m 7,2 km/h (2 Bft) 97,72 %
18.08.2022 21:00 23,7 C 21,8 C 17,9 C 72 % 1012,8 hPa 0,0 l/m 0,00 h 0,00 h 5 W/m 1,4 km/h (1 Bft) 96,37 %
18.08.2022 22:00 22,0 C 20,0 C 16,3 C 79 % 1012,9 hPa 0,0 l/m 0,00 h 0,00 h 0 W/m 0,0 km/h (0 Bft) 98,58 %
18.08.2022 23:00 20,7 C 19,1 C 15,5 C 83 % 1013,1 hPa 0,0 l/m 0,00 h 0,00 h 0 W/m 0,0 km/h (0 Bft) 97,72 %
19.08.2022 00:00 19,7 C 18,5 C 15,2 C 86 % 1013,2 hPa 0,0 l/m 0,00 h 0,00 h 0 W/m 1,9 km/h (1 Bft) 96,71 %
19.08.2022 01:00 19,1 C 17,8 C 14,4 C 88 % 1013,3 hPa 0,0 l/m 0,00 h 0,00 h 0 W/m 0,0 km/h (0 Bft) 97,88 %
19.08.2022 02:00 18,5 C 17,0 C 13,9 C 90 % 1013,4 hPa 0,0 l/m 0,00 h 0,00 h 0 W/m 0,0 km/h (0 Bft) 98,01 %
19.08.2022 03:00 17,9 C 16,7 C 13,6 C 92 % 1013,3 hPa 0,0 l/m 0,00 h 0,00 h 0 W/m 0,1 km/h (0 Bft) 97,51 %
19.08.2022 04:00 17,4 C 16,3 C 13,1 C 92 % 1013,3 hPa 0,0 l/m 0,00 h 0,00 h 0 W/m 0,7 km/h (0 Bft) 96,76 %
19.08.2022 05:00 17,0 C 15,9 C 12,9 C 93 % 1013,5 hPa 0,0 l/m 0,00 h 0,00 h 0 W/m 0,9 km/h (0 Bft) 98,86 %
19.08.2022 06:00 16,9 C 15,8 C 12,8 C 95 % 1013,5 hPa 0,0 l/m 0,00 h 0,00 h 10 W/m 1,0 km/h (0 Bft) 98,06 %
19.08.2022 07:00 17,2 C 16,7 C 13,6 C 96 % 1014,0 hPa 0,0 l/m 0,00 h 0,00 h 39 W/m 1,8 km/h (1 Bft) 96,30 %
19.08.2022 08:00 18,4 C 18,7 C 15,1 C 95 % 1014,2 hPa 0,0 l/m 0,30 h 0,00 h 122 W/m 4,4 km/h (1 Bft) 98,58 %
19.08.2022 09:00 20,1 C 21,6 C 16,7 C 90 % 1014,5 hPa 0,0 l/m 0,67 h 0,00 h 263 W/m 11,3 km/h (2 Bft) 98,34 %
19.08.2022 10:00 21,3 C 21,9 C 18,0 C 84 % 1014,9 hPa 0,0 l/m 0,50 h 0,00 h 341 W/m 9,8 km/h (2 Bft) 95,94 %
19.08.2022 11:00 22,9 C 24,1 C 19,5 C 75 % 1015,0 hPa 0,0 l/m 1,00 h 0,00 h 474 W/m 11,1 km/h (2 Bft) 98,80 %
19.08.2022 12:00 24,7 C 28,4 C 22,2 C 70 % 1014,7 hPa 0,0 l/m 1,00 h 0,00 h 762 W/m 14,0 km/h (3 Bft) 96,73 %
19.08.2022 13:00 25,6 C 27,0 C 21,4 C 64 % 1014,5 hPa 0,0 l/m 0,70 h 0,00 h 626 W/m 13,3 km/h (3 Bft) 98,22 %
19.08.2022 14:00 26,8 C 32,1 C 21,8 C 58 % 1014,3 hPa 0,0 l/m 0,97 h 0,00 h 794 W/m 14,8 km/h (3 Bft) 96,58 %
19.08.2022 15:00 27,6 C 31,6 C 22,2 C 55 % 1013,9 hPa 0,0 l/m 0,97 h 0,00 h 711 W/m 16,9 km/h (3 Bft) 98,43 %
19.08.2022 16:00 27,5 C 29,2 C 22,2 C 56 % 1013,6 hPa 0,0 l/m 0,90 h 0,00 h 574 W/m 17,4 km/h (3 Bft) 97,44 %
19.08.2022 17:00 27,1 C 29,3 C 22,3 C 61 % 1014,0 hPa 0,0 l/m 0,83 h 0,00 h 440 W/m 16,7 km/h (3 Bft) 96,73 %
19.08.2022 18:00 25,8 C 25,1 C 21,1 C 66 % 1014,2 hPa 0,0 l/m 0,00 h 0,00 h 104 W/m 9,3 km/h (2 Bft) 98,44 %
19.08.2022 19:00 24,4 C 23,2 C 19,7 C 73 % 1014,4 hPa 0,0 l/m 0,00 h 0,00 h 35 W/m 9,8 km/h (2 Bft) 98,35 %
19.08.2022 20:00 23,0 C 22,0 C 18,4 C 78 % 1014,5 hPa 0,0 l/m 0,00 h 0,00 h 8 W/m 1,1 km/h (0 Bft) 96,24 %
19.08.2022 21:00 22,7 C 21,6 C 18,3 C 80 % 1014,9 hPa 0,0 l/m 0,00 h 0,00 h 0 W/m 4,7 km/h (1 Bft) 99,79 %
19.08.2022 22:00 21,9 C 20,7 C 17,5 C 86 % 1015,2 hPa 0,0 l/m 0,00 h 0,03 h 0 W/m 7,7 km/h (2 Bft) 96,01 %
19.08.2022 23:00 21,0 C 19,7 C 16,0 C 92 % 1015,4 hPa 0,2 l/m 0,00 h 0,30 h 0 W/m 5,6 km/h (1 Bft) 98,01 %
20.08.2022 00:00 20,5 C 19,4 C 16,1 C 95 % 1015,6 hPa 0,0 l/m 0,00 h 0,00 h 0 W/m 2,8 km/h (1 Bft) 98,55 %
20.08.2022 01:00 20,2 C 19,2 C 15,9 C 95 % 1015,8 hPa 1,2 l/m 0,00 h 0,63 h 0 W/m 4,5 km/h (1 Bft) 96,51 %
20.08.2022 02:00 19,9 C 18,9 C 15,4 C 97 % 1015,5 hPa 1,8 l/m 0,00 h 0,77 h 0 W/m 4,3 km/h (1 Bft) 97,51 %
20.08.2022 03:00 19,5 C 18,5 C 15,0 C 97 % 1015,5 hPa 0,2 l/m 0,00 h 0,27 h 0 W/m 3,6 km/h (1 Bft) 99,29 %
20.08.2022 04:00 19,3 C 18,3 C 15,0 C 98 % 1015,6 hPa 0,0 l/m 0,00 h 0,03 h 0 W/m 1,7 km/h (1 Bft) 95,90 %
20.08.2022 05:00 19,3 C 18,3 C 15,0 C 98 % 1015,4 hPa 3,4 l/m 0,00 h 0,33 h 0 W/m 0,7 km/h (0 Bft) 97,86 %
20.08.2022 06:00 19,0 C 17,8 C 14,6 C 98 % 1015,7 hPa 6,6 l/m 0,00 h 0,67 h 0 W/m 1,2 km/h (1 Bft) 98,68 %
20.08.2022 07:00 18,8 C 17,8 C 14,8 C 99 % 1016,2 hPa 0,2 l/m 0,00 h 0,23 h 11 W/m 4,9 km/h (1 Bft) 95,58 %
20.08.2022 08:00 18,6 C 18,3 C 14,5 C 99 % 1016,4 hPa 0,0 l/m 0,00 h 0,00 h 78 W/m 10,4 km/h (2 Bft) 98,67 %
20.08.2022 09:00 18,5 C 18,2 C 14,2 C 98 % 1016,8 hPa 0,0 l/m 0,00 h 0,00 h 81 W/m 8,3 km/h (2 Bft) 96,67 %
20.08.2022 10:00 18,4 C 18,1 C 13,9 C 96 % 1017,3 hPa 0,0 l/m 0,00 h 0,00 h 102 W/m 8,1 km/h (2 Bft) 97,34 %
20.08.2022 11:00 18,6 C 18,5 C 14,0 C 95 % 1017,7 hPa 0,0 l/m 0,00 h 0,00 h 172 W/m 11,1 km/h (2 Bft) 98,36 %
20.08.2022 12:00 19,4 C 19,9 C 15,2 C 93 % 1017,8 hPa 0,0 l/m 0,10 h 0,00 h 304 W/m 9,8 km/h (2 Bft) 97,94 %
20.08.2022 13:00 21,4 C 22,5 C 18,1 C 85 % 1017,8 hPa 0,0 l/m 0,60 h 0,00 h 595 W/m 11,8 km/h (2 Bft) 97,29 %
20.08.2022 14:00 23,1 C 27,8 C 18,9 C 75 % 1017,7 hPa 0,0 l/m 0,83 h 0,00 h 726 W/m 13,0 km/h (3 Bft) 98,01 %
20.08.2022 15:00 24,4 C 27,9 C 19,6 C 69 % 1017,4 hPa 0,0 l/m 0,93 h 0,00 h 693 W/m 12,1 km/h (2 Bft) 97,07 %
20.08.2022 16:00 25,0 C 26,8 C 20,0 C 66 % 1017,2 hPa 0,0 l/m 0,80 h 0,00 h 559 W/m 11,5 km/h (2 Bft) 99,01 %
20.08.2022 17:00 25,2 C 27,8 C 20,5 C 62 % 1017,1 hPa 0,0 l/m 0,93 h 0,00 h 473 W/m 12,0 km/h (2 Bft) 95,73 %
20.08.2022 18:00 24,8 C 25,6 C 20,0 C 62 % 1017,1 hPa 0,0 l/m 0,62 h 0,00 h 216 W/m 10,6 km/h (2 Bft) 99,16 %
20.08.2022 19:00 23,9 C 22,8 C 18,7 C 64 % 1017,2 hPa 0,0 l/m 0,00 h 0,00 h 53 W/m 4,9 km/h (1 Bft) 98,57 %
20.08.2022 20:00 22,8 C 21,0 C 17,0 C 69 % 1017,4 hPa 0,0 l/m 0,00 h 0,00 h 18 W/m 2,0 km/h (1 Bft) 95,94 %
20.08.2022 21:00 21,1 C 19,3 C 15,9 C 73 % 1017,8 hPa 0,0 l/m 0,00 h 0,00 h 0 W/m 3,5 km/h (1 Bft) 98,49 %
20.08.2022 22:00 19,8 C 18,3 C 14,7 C 78 % 1017,9 hPa 0,0 l/m 0,00 h 0,00 h 0 W/m 2,6 km/h (1 Bft) 98,49 %
20.08.2022 23:00 18,6 C 16,9 C 13,5 C 83 % 1017,9 hPa 0,0 l/m 0,00 h 0,00 h 0 W/m 1,2 km/h (1 Bft) 95,93 %
21.08.2022 00:00 17,6 C 15,9 C 12,7 C 87 % 1017,9 hPa 0,0 l/m 0,00 h 0,00 h 0 W/m 0,0 km/h (0 Bft) 99,17 %
21.08.2022 01:00 17,0 C 15,6 C 12,7 C 90 % 1017,8 hPa 0,0 l/m 0,00 h 0,00 h 0 W/m 0,0 km/h (0 Bft) 97,13 %
21.08.2022 02:00 16,4 C 15,1 C 12,0 C 91 % 1017,4 hPa 0,0 l/m 0,00 h 0,00 h 0 W/m 0,0 km/h (0 Bft) 97,22 %
21.08.2022 03:00 15,8 C 14,4 C 11,7 C 93 % 1017,2 hPa 0,0 l/m 0,00 h 0,00 h 0 W/m 0,1 km/h (0 Bft) 95,21 %
21.08.2022 04:00 15,4 C 14,3 C 11,4 C 93 % 1017,1 hPa 0,0 l/m 0,00 h 0,00 h 0 W/m 0,4 km/h (0 Bft) 98,43 %
21.08.2022 05:00 15,0 C 13,9 C 11,1 C 93 % 1017,0 hPa 0,0 l/m 0,00 h 0,00 h 0 W/m 0,4 km/h (0 Bft) 98,22 %
21.08.2022 06:00 14,6 C 13,9 C 11,0 C 93 % 1017,2 hPa 0,0 l/m 0,00 h 0,00 h 9 W/m 2,1 km/h (1 Bft) 96,40 %
21.08.2022 07:00 14,7 C 14,3 C 11,3 C 91 % 1017,4 hPa 0,0 l/m 0,00 h 0,00 h 22 W/m 6,1 km/h (2 Bft) 98,36 %
21.08.2022 08:00 15,8 C 15,8 C 12,3 C 88 % 1017,5 hPa 0,0 l/m 0,27 h 0,00 h 113 W/m 8,5 km/h (2 Bft) 98,01 %
21.08.2022 09:00 18,3 C 20,8 C 14,1 C 80 % 1017,6 hPa 0,0 l/m 0,80 h 0,00 h 324 W/m 10,0 km/h (2 Bft) 96,94 %
21.08.2022 10:00 19,9 C 20,5 C 15,5 C 74 % 1017,4 hPa 0,0 l/m 0,57 h 0,00 h 396 W/m 10,4 km/h (2 Bft) 99,43 %
21.08.2022 11:00 21,2 C 22,6 C 17,0 C 70 % 1017,2 hPa 0,0 l/m 0,90 h 0,00 h 631 W/m 11,6 km/h (2 Bft) 96,28 %
21.08.2022 12:00 22,5 C 26,6 C 19,6 C 66 % 1016,9 hPa 0,0 l/m 0,97 h 0,00 h 713 W/m 10,4 km/h (2 Bft) 97,37 %
21.08.2022 13:00 23,8 C 25,5 C 19,4 C 63 % 1016,7 hPa 0,0 l/m 1,00 h 0,00 h 751 W/m 13,1 km/h (3 Bft) 99,36 %
21.08.2022 14:00 24,8 C 29,7 C 19,9 C 58 % 1016,5 hPa 0,0 l/m 1,00 h 0,00 h 744 W/m 13,3 km/h (3 Bft) 96,61 %
21.08.2022 15:00 25,4 C 29,5 C 20,4 C 56 % 1016,3 hPa 0,0 l/m 0,97 h 0,00 h 717 W/m 12,4 km/h (3 Bft) 97,38 %
21.08.2022 16:00 26,7 C 29,1 C 21,2 C 54 % 1016,1 hPa 0,0 l/m 0,93 h 0,00 h 649 W/m 11,8 km/h (2 Bft) 98,22 %
21.08.2022 17:00 26,9 C 29,9 C 21,7 C 51 % 1015,9 hPa 0,0 l/m 1,00 h 0,00 h 491 W/m 11,1 km/h (2 Bft) 96,80 %
21.08.2022 18:00 25,7 C 26,0 C 20,6 C 52 % 1015,9 hPa 0,0 l/m 0,83 h 0,00 h 217 W/m 11,7 km/h (2 Bft) 98,00 %
21.08.2022 19:00 24,0 C 23,0 C 19,0 C 57 % 1015,9 hPa 0,0 l/m 0,17 h 0,00 h 61 W/m 10,9 km/h (2 Bft) 96,87 %
21.08.2022 20:00 22,3 C 20,6 C 17,0 C 63 % 1016,0 hPa 0,0 l/m 0,00 h 0,00 h 12 W/m 2,8 km/h (1 Bft) 99,22 %
21.08.2022 21:00 20,8 C 19,1 C 15,6 C 70 % 1016,3 hPa 0,0 l/m 0,00 h 0,00 h 0 W/m 1,2 km/h (1 Bft) 96,44 %
21.08.2022 22:00 20,1 C 18,9 C 15,5 C 71 % 1016,6 hPa 0,0 l/m 0,00 h 0,00 h 0 W/m 3,4 km/h (1 Bft) 95,92 %
21.08.2022 23:00 19,5 C 18,4 C 15,0 C 73 % 1016,5 hPa 0,0 l/m 0,00 h 0,00 h 0 W/m 2,8 km/h (1 Bft) 97,22 %
Min-Datum _ 21.08.22 21.08.22 21.08.22 16.08.22 15.08.22 - - - - 15.08.22 21.08.22
_ Min-Zeit 06:12 04:44 05:56 17:22 02:08 - - - - 00:00 22:58
Minimum _ 14,6 C 13,9 C 10,6 C 47 % 1003,3 hPa - - - - 0,0 km/h (0 Bft) 53,49 %
Max-Datum _ 16.08.22 16.08.22 16.08.22 20.08.22 20.08.22 20.08.22 17.08.22 20.08.22 15.08.22 15.08.22 15.08.22
_ Max-Zeit 15:42 12:26 12:32 07:16 21:58 06:08 18:54 06:08 15:12 15:36 00:18
Maximum _ 30,4 C 35,6 C 28,9 C 99 % 1018,0 hPa 6,6 l/m 0,08 h 0,07 h 1012 W/m 32,2 km/h
S-SW (5 Bft)
100,00 %
Durchschnitt _ 22,1 C 22,0 C 17,7 C 77 % 1012,0 hPa #13,6 l/m #40:42 h #3:52 h 274 W/m 6,5 km/h (2 Bft) 97,61 %
© 2022 W. Hausmann